Time;durP1;ratioP1;P1;durP2;ratioP2;P2;SDS_P1;SDS_P2;PMS_P1;PMS_P2;Temp;Humidity;BMP_temperature;BMP_pressure;BME280_temperature;BME280_humidity;BME280_pressure;Samples;Min_cycle;Max_cycle;Signal;HPM_P1;HPM_P2
2021/06/12 00:00:32;;;;;;;;;;;;;;;17.33;79.88;99240.09;5091569;28;20048;-81
2021/06/12 00:02:59;;;;;;;7.90;6.47;;;;;;;17.18;80.06;99240.47;5083036;28;20033;-81
2021/06/12 00:05:26;;;;;;;8.68;6.85;;;;;;;17.19;79.97;99238.53;5078617;28;20051;-81
2021/06/12 00:07:53;;;;;;;10.40;7.05;;;;;;;17.33;79.49;99249.16;5090614;28;20047;-81
2021/06/12 00:10:21;;;;;;;7.63;6.45;;;;;;;17.39;78.98;99246.56;5091231;28;20488;-81
2021/06/12 00:12:48;;;;;;;12.65;6.60;;;;;;;17.32;79.05;99249.41;5089948;28;20052;-81
2021/06/12 00:15:18;;;;;;;13.05;7.35;;;;;;;17.10;79.71;99241.59;5078029;28;20070;-81
2021/06/12 00:17:45;;;;;;;9.43;7.57;;;;;;;17.08;79.69;99248.38;5086411;28;20052;-82
2021/06/12 00:20:15;;;;;;;10.02;7.53;;;;;;;17.02;79.85;99247.34;5090161;28;20475;-81
2021/06/12 00:22:43;;;;;;;7.85;7.05;;;;;;;16.76;80.26;99231.94;5087862;28;20056;-81
2021/06/12 00:25:14;;;;;;;16.30;9.57;;;;;;;16.85;80.13;99246.22;5089926;28;20126;-81
2021/06/12 00:27:41;;;;;;;11.85;7.85;;;;;;;16.62;80.31;99228.47;5091505;28;20136;-81
2021/06/12 00:30:09;;;;;;;9.30;6.95;;;;;;;16.67;80.64;99247.00;5090779;28;20056;-81
2021/06/12 00:32:37;;;;;;;13.88;6.78;;;;;;;16.62;80.29;99233.94;5086082;28;20118;-81
2021/06/12 00:35:09;;;;;;;8.73;7.13;;;;;;;16.50;81.30;99241.19;5090505;28;20048;-81
2021/06/12 00:37:35;;;;;;;10.23;8.35;;;;;;;16.46;81.43;99227.09;5083878;28;20427;-81
2021/06/12 00:40:03;;;;;;;10.20;8.55;;;;;;;16.43;81.68;99238.50;5089749;28;20056;-81
2021/06/12 00:42:30;;;;;;;9.63;7.88;;;;;;;16.30;82.00;99222.97;5089379;28;20059;-81
2021/06/12 00:44:56;;;;;;;12.77;7.95;;;;;;;16.32;81.58;99211.75;5087032;28;20127;-81
2021/06/12 00:47:22;;;;;;;12.10;8.77;;;;;;;16.58;80.84;99235.44;5080657;28;20048;-81
2021/06/12 00:49:50;;;;;;;12.13;7.60;;;;;;;16.48;80.89;99233.19;5086382;28;20074;-80
2021/06/12 00:52:17;;;;;;;9.40;7.40;;;;;;;16.45;80.43;99217.16;5081932;28;20373;-80
2021/06/12 00:54:43;;;;;;;8.70;7.30;;;;;;;16.30;80.87;99217.47;5090098;28;20101;-81
2021/06/12 00:57:14;;;;;;;9.30;6.70;;;;;;;16.41;80.00;99208.53;5088770;28;20484;-81
2021/06/12 00:59:40;;;;;;;10.00;7.22;;;;;;;16.41;80.15;99232.38;5086853;28;20060;-80
2021/06/12 01:02:07;;;;;;;8.93;6.60;;;;;;;16.30;80.41;99231.19;5089775;28;20063;-80
2021/06/12 01:04:33;;;;;;;7.70;6.75;;;;;;;16.25;80.76;99217.31;5083661;28;20055;-82
2021/06/12 01:07:06;;;;;;;11.15;7.60;;;;;;;16.35;81.55;99236.00;5088059;28;20675;-81
2021/06/12 01:09:33;;;;;;;8.65;7.72;;;;;;;16.37;80.60;99222.94;5089446;28;20044;-81
2021/06/12 01:12:09;;;;;;;11.02;6.80;;;;;;;16.30;80.45;99233.94;5089235;28;20086;-81
2021/06/12 01:14:40;;;;;;;15.65;6.97;;;;;;;15.92;81.21;99221.06;5079531;28;20131;-81
2021/06/12 01:17:13;;;;;;;9.20;7.50;;;;;;;15.73;82.09;99215.44;5089763;28;20258;-81
2021/06/12 01:20:02;;;;;;;8.05;7.25;;;;;;;15.70;82.55;99224.09;5078414;28;20171;-81
2021/06/12 01:22:59;;;;;;;15.18;7.80;;;;;;;15.61;82.98;99216.31;5076530;28;20101;-83
2021/06/12 01:25:32;;;;;;;8.05;7.25;;;;;;;15.66;83.13;99222.00;5087469;28;20056;-80
2021/06/12 01:28:30;;;;;;;9.60;7.70;;;;;;;15.64;83.53;99219.47;5086503;28;20047;-81
2021/06/12 01:30:59;;;;;;;11.45;7.68;;;;;;;15.85;82.58;99218.38;5079501;28;20048;-81
2021/06/12 01:33:26;;;;;;;10.85;6.50;;;;;;;15.68;82.50;99217.13;5090516;28;20055;-80
2021/06/12 01:35:57;;;;;;;7.57;6.70;;;;;;;15.70;82.18;99215.88;5080889;28;20466;-82
2021/06/12 01:38:26;;;;;;;12.90;7.22;;;;;;;15.63;81.76;99206.81;5093794;28;20048;-81
2021/06/12 01:41:22;;;;;;;8.10;6.87;;;;;;;15.39;82.04;99211.13;5089277;28;20047;-81
2021/06/12 01:43:51;;;;;;;10.05;7.20;;;;;;;15.47;83.34;99229.22;5081590;28;20711;-80
2021/06/12 01:46:21;;;;;;;11.70;7.65;;;;;;;15.39;82.98;99220.19;5084886;28;20463;-81
2021/06/12 01:48:48;;;;;;;;;;;;;;;15.43;84.32;99231.56;5082287;28;20571;-82
2021/06/12 01:51:16;;;;;;;8.07;6.97;;;;;;;15.51;84.08;99228.56;5093040;28;20379;-81
2021/06/12 01:53:44;;;;;;;7.80;6.93;;;;;;;15.58;82.80;99226.66;5072081;28;20045;-81
2021/06/12 01:56:11;;;;;;;12.70;8.52;;;;;;;15.70;82.48;99223.22;5091257;28;20051;-81
2021/06/12 01:58:46;;;;;;;7.57;6.03;;;;;;;15.55;82.51;99218.88;5084982;28;20060;-81
2021/06/12 02:01:15;;;;;;;9.38;6.90;;;;;;;15.46;82.70;99208.34;5081596;28;20397;-81
2021/06/12 02:03:50;;;;;;;8.50;7.40;;;;;;;15.23;83.57;99206.94;5094254;28;20048;-81
2021/06/12 02:06:21;;;;;;;8.27;7.00;;;;;;;15.15;83.33;99212.66;5093121;28;20052;-81
2021/06/12 02:08:48;;;;;;;10.40;8.07;;;;;;;15.31;84.12;99228.63;5089900;28;20081;-82
2021/06/12 02:11:16;;;;;;;10.40;8.13;;;;;;;15.30;84.64;99224.22;5081600;28;20044;-81
2021/06/12 02:13:43;;;;;;;9.95;7.30;;;;;;;15.44;83.52;99227.75;5093929;28;20048;-81
2021/06/12 02:16:18;;;;;;;11.90;7.43;;;;;;;15.36;83.08;99217.88;5087874;28;20044;-81
2021/06/12 02:18:47;;;;;;;11.10;7.43;;;;;;;15.17;83.61;99222.31;5091171;28;20470;-81
2021/06/12 02:21:15;;;;;;;9.27;7.43;;;;;;;15.14;83.76;99225.50;5090993;28;20499;-81
2021/06/12 02:23:42;;;;;;;10.57;7.25;;;;;;;15.11;83.68;99228.66;5093831;28;20058;-82
2021/06/12 02:26:10;;;;;;;10.77;7.60;;;;;;;15.37;82.84;99221.44;5088539;28;20417;-81
2021/06/12 02:28:37;;;;;;;14.07;8.00;;;;;;;15.37;82.46;99235.13;5084295;28;20047;-81
2021/06/12 02:31:07;;;;;;;9.52;7.65;;;;;;;15.22;82.80;99224.44;5073531;28;20044;-80
2021/06/12 02:33:35;;;;;;;13.98;10.57;;;;;;;15.14;82.92;99225.50;5086903;28;20525;-81
2021/06/12 02:36:04;;;;;;;12.23;9.30;;;;;;;14.94;83.09;99228.25;5090390;28;20048;-81
2021/06/12 02:38:31;;;;;;;11.15;8.40;;;;;;;14.87;84.20;99230.16;5091906;28;20071;-81
2021/06/12 02:40:59;;;;;;;10.40;7.57;;;;;;;14.84;83.96;99225.97;5091474;28;20380;-81
2021/06/12 02:43:26;;;;;;;8.57;7.10;;;;;;;14.95;83.66;99218.16;5092569;28;20458;-81
2021/06/12 02:45:53;;;;;;;10.25;7.45;;;;;;;14.99;83.21;99227.63;5092901;28;20056;-82
2021/06/12 02:48:20;;;;;;;10.80;7.28;;;;;;;14.90;83.30;99240.69;5091635;28;20062;-80
2021/06/12 02:50:48;;;;;;;8.65;7.75;;;;;;;14.88;83.57;99248.28;5092823;28;20094;-81
2021/06/12 02:53:22;;;;;;;9.43;8.43;;;;;;;14.95;83.06;99238.16;5092763;28;20046;-81
2021/06/12 02:55:51;;;;;;;9.48;7.72;;;;;;;14.87;83.57;99243.84;5091974;28;20286;-82
2021/06/12 02:58:22;;;;;;;8.43;7.38;;;;;;;14.80;83.55;99237.56;5080431;28;20048;-81
2021/06/12 03:00:49;;;;;;;10.57;7.60;;;;;;;14.74;84.54;99250.19;5091774;28;20305;-81
2021/06/12 03:03:16;;;;;;;11.10;8.57;;;;;;;14.82;84.14;99249.13;5092436;28;20056;-81
2021/06/12 03:05:46;;;;;;;8.45;7.43;;;;;;;14.66;84.46;99239.41;5092856;28;20056;-81
2021/06/12 03:08:14;;;;;;;;;;;;;;;14.79;84.20;99247.63;5086477;28;20039;-81
2021/06/12 03:10:44;;;;;;;8.65;6.55;;;;;;;14.73;84.24;99243.00;5092986;28;20274;-81
2021/06/12 03:13:17;;;;;;;9.18;6.65;;;;;;;14.79;83.73;99244.91;5088921;28;20097;-81
2021/06/12 03:15:46;;;;;;;11.50;8.50;;;;;;;14.77;84.56;99240.69;5090513;28;20063;-81
2021/06/12 03:18:12;;;;;;;10.25;8.63;;;;;;;14.68;85.07;99237.34;5092142;28;20408;-82
2021/06/12 03:20:39;;;;;;;16.17;8.90;;;;;;;14.64;85.24;99242.38;5091843;28;20059;-81
2021/06/12 03:23:07;;;;;;;13.88;9.38;;;;;;;14.61;85.46;99240.06;5092291;28;20044;-81
2021/06/12 03:25:34;;;;;;;11.43;8.70;;;;;;;14.50;85.45;99219.59;5089170;28;20098;-81
2021/06/12 03:28:02;;;;;;;10.73;8.43;;;;;;;14.42;86.06;99228.03;5092306;28;20404;-81
2021/06/12 03:30:28;;;;;;;10.57;7.97;;;;;;;14.49;85.51;99234.31;5089156;28;20109;-81
2021/06/12 03:32:55;;;;;;;12.35;7.82;;;;;;;14.60;85.48;99238.34;5088846;28;20125;-81
2021/06/12 03:35:23;;;;;;;29.30;8.38;;;;;;;14.51;85.80;99248.66;5084853;28;20067;-81
2021/06/12 03:37:50;;;;;;;9.68;7.20;;;;;;;14.49;85.50;99244.44;5087528;28;20377;-82
2021/06/12 03:40:16;;;;;;;9.57;7.13;;;;;;;14.57;85.18;99236.00;5091577;28;20488;-81
2021/06/12 03:42:44;;;;;;;10.02;7.68;;;;;;;14.60;85.13;99234.75;5091127;28;20059;-81
2021/06/12 03:45:14;;;;;;;9.18;7.75;;;;;;;14.44;85.39;99231.38;5090865;28;20054;-81
2021/06/12 03:47:41;;;;;;;23.48;8.50;;;;;;;14.59;85.40;99235.81;5083796;28;20045;-82
2021/06/12 03:50:11;;;;;;;12.82;7.45;;;;;;;14.49;85.50;99238.97;5085287;28;20048;-82
2021/06/12 03:52:40;;;;;;;8.95;6.50;;;;;;;14.55;85.64;99246.34;5088196;28;20059;-81
2021/06/12 03:55:09;;;;;;;10.27;7.70;;;;;;;14.56;86.17;99237.09;5088442;28;20051;-81
2021/06/12 03:57:36;;;;;;;9.88;8.38;;;;;;;14.62;86.55;99232.72;5083639;28;20105;-81
2021/06/12 04:00:07;;;;;;;10.88;8.50;;;;;;;14.75;86.66;99249.09;5092623;28;20048;-81
2021/06/12 04:02:35;;;;;;;8.73;7.63;;;;;;;14.95;85.57;99245.53;5091669;28;20101;-82
2021/06/12 04:05:01;;;;;;;11.07;8.13;;;;;;;14.95;85.57;99253.72;5087201;28;20041;-81
2021/06/12 04:07:28;;;;;;;13.27;8.85;;;;;;;15.01;85.92;99248.28;5092043;28;20069;-81
2021/06/12 04:09:54;;;;;;;11.32;8.90;;;;;;;15.21;85.86;99258.34;5078247;28;20504;-81
2021/06/12 04:12:21;;;;;;;10.48;8.45;;;;;;;15.24;85.42;99266.16;5091749;28;20044;-81
2021/06/12 04:14:47;;;;;;;13.93;9.40;;;;;;;15.34;85.15;99254.75;5086316;28;20432;-81
2021/06/12 04:17:15;;;;;;;9.75;8.68;;;;;;;15.39;85.15;99271.41;5091875;28;20052;-82
2021/06/12 04:19:43;;;;;;;9.60;8.65;;;;;;;15.45;83.23;99272.44;5087091;28;20048;-82
2021/06/12 04:22:09;;;;;;;10.32;8.27;;;;;;;15.58;82.27;99270.50;5078304;28;20102;-81
2021/06/12 04:24:36;;;;;;;8.93;8.02;;;;;;;15.50;83.43;99280.84;5086485;28;20044;-82
2021/06/12 04:27:02;;;;;;;11.07;7.97;;;;;;;15.57;83.54;99254.28;5090815;28;20071;-81
2021/06/12 04:29:29;;;;;;;14.45;8.35;;;;;;;15.63;83.83;99260.81;5077963;28;20089;-81
2021/06/12 04:31:55;;;;;;;12.25;8.60;;;;;;;15.57;84.52;99274.28;5081376;28;20063;-81
2021/06/12 04:34:22;;;;;;;12.35;8.93;;;;;;;15.67;84.43;99268.38;5091583;28;20063;-81
2021/06/12 04:36:50;;;;;;;8.52;6.95;;;;;;;15.67;85.03;99271.13;5090759;28;20480;-81
2021/06/12 04:39:16;;;;;;;13.57;8.02;;;;;;;15.62;84.99;99265.44;5090683;28;20544;-81
2021/06/12 04:41:42;;;;;;;10.23;8.88;;;;;;;15.77;84.21;99269.81;5091779;28;20044;-81
2021/06/12 04:44:09;;;;;;;10.48;9.35;;;;;;;15.81;83.58;99249.19;5073958;28;20048;-81
2021/06/12 04:46:35;;;;;;;11.32;8.27;;;;;;;15.96;83.67;99247.00;5090755;28;20048;-81
2021/06/12 04:49:01;;;;;;;11.60;8.73;;;;;;;16.05;83.23;99250.34;5082940;28;20041;-81
2021/06/12 04:51:28;;;;;;;10.52;8.63;;;;;;;16.15;83.11;99255.34;5082907;28;20087;-81
2021/06/12 04:53:55;;;;;;;10.10;8.25;;;;;;;16.21;82.45;99266.28;5072910;28;20129;-81
2021/06/12 04:56:21;;;;;;;9.65;8.60;;;;;;;16.51;81.22;99270.31;5089963;28;20047;-82
2021/06/12 04:58:48;;;;;;;9.70;8.63;;;;;;;16.83;79.61;99262.06;5091228;28;20048;-81
2021/06/12 05:01:14;;;;;;;11.30;7.93;;;;;;;17.28;78.49;99260.03;5079799;28;20407;-82
2021/06/12 05:03:40;;;;;;;9.02;7.63;;;;;;;17.72;77.20;99267.34;5091227;28;20052;-82
2021/06/12 05:06:06;;;;;;;8.65;7.18;;;;;;;18.01;76.22;99265.78;5079726;28;20040;-82
2021/06/12 05:08:33;;;;;;;7.97;7.03;;;;;;;18.15;76.75;99271.94;5091253;28;20071;-82
2021/06/12 05:11:00;;;;;;;10.02;6.68;;;;;;;18.32;76.60;99261.97;5087606;28;20052;-82
2021/06/12 05:13:27;;;;;;;7.50;6.57;;;;;;;18.31;76.30;99253.97;5078196;28;20049;-81
2021/06/12 05:15:53;;;;;;;8.88;7.18;;;;;;;18.43;74.99;99262.22;5082902;28;20079;-82
2021/06/12 05:18:21;;;;;;;8.77;6.50;;;;;;;18.50;74.92;99261.09;5095093;28;20432;-82
2021/06/12 05:20:47;;;;;;;9.30;7.55;;;;;;;18.64;74.80;99260.88;5095235;28;20106;-82
2021/06/12 05:23:13;;;;;;;9.40;7.25;;;;;;;18.68;74.88;99249.16;5091907;28;20043;-82
2021/06/12 05:25:40;;;;;;;12.82;7.20;;;;;;;18.88;74.28;99272.84;5093858;28;20072;-82
2021/06/12 05:28:07;;;;;;;9.80;7.28;;;;;;;18.97;74.10;99257.63;5089897;28;20067;-82
2021/06/12 05:30:34;;;;;;;10.32;7.32;;;;;;;19.11;73.99;99269.25;5074229;28;20067;-81
2021/06/12 05:33:00;;;;;;;8.27;6.80;;;;;;;19.26;73.87;99258.59;5089622;28;20051;-81
2021/06/12 05:35:26;;;;;;;7.95;7.15;;;;;;;19.31;74.38;99252.34;5093876;28;20560;-81
2021/06/12 05:37:52;;;;;;;16.13;7.35;;;;;;;19.38;74.34;99255.00;5092554;28;20051;-80
2021/06/12 05:40:19;;;;;;;9.77;7.80;;;;;;;19.63;73.36;99274.03;5085855;28;20048;-81
2021/06/12 05:42:45;;;;;;;10.65;8.13;;;;;;;19.82;72.81;99268.41;5093993;28;20549;-82
2021/06/12 05:45:13;;;;;;;10.45;6.90;;;;;;;19.89;71.99;99269.94;5092714;28;20070;-81
2021/06/12 05:47:39;;;;;;;13.45;8.52;;;;;;;19.89;72.51;99260.84;5094308;28;20412;-82
2021/06/12 05:50:07;;;;;;;13.10;7.88;;;;;;;19.91;72.18;99265.00;5075166;28;20040;-82
2021/06/12 05:52:34;;;;;;;12.02;8.73;;;;;;;19.89;72.37;99269.13;5075649;28;20098;-82
2021/06/12 05:55:00;;;;;;;12.02;8.00;;;;;;;20.23;71.16;99255.44;5086684;28;20278;-81
2021/06/12 05:57:26;;;;;;;11.48;8.18;;;;;;;20.96;68.79;99256.53;5089972;28;20052;-82
2021/06/12 05:59:52;;;;;;;12.95;7.47;;;;;;;21.06;66.31;99239.25;5085212;28;20048;-81
2021/06/12 06:02:20;;;;;;;12.60;8.18;;;;;;;20.95;65.40;99254.84;5091575;28;20051;-81
2021/06/12 06:04:47;;;;;;;15.25;7.53;;;;;;;21.07;66.10;99251.16;5093987;28;20428;-81
2021/06/12 06:07:13;;;;;;;8.88;7.63;;;;;;;21.42;64.11;99263.84;5092228;28;20069;-81
2021/06/12 06:09:40;;;;;;;11.23;7.25;;;;;;;21.42;63.66;99261.91;5093274;28;20044;-84
2021/06/12 06:12:08;;;;;;;12.75;7.88;;;;;;;21.78;63.11;99256.91;5094682;28;20121;-82
2021/06/12 06:14:34;;;;;;;8.23;7.13;;;;;;;21.99;61.92;99255.25;5084992;28;20095;-82
2021/06/12 06:17:00;;;;;;;13.05;7.57;;;;;;;21.99;62.12;99259.97;5094892;28;20051;-82
2021/06/12 06:19:28;;;;;;;9.70;6.90;;;;;;;21.55;63.16;99261.59;5090791;28;20044;-82
2021/06/12 06:21:57;;;;;;;7.75;6.75;;;;;;;21.86;63.34;99263.94;5093890;28;20524;-81
2021/06/12 06:24:24;;;;;;;12.88;7.22;;;;;;;22.18;61.52;99264.06;5088279;28;20411;-82
2021/06/12 06:26:53;;;;;;;9.27;6.80;;;;;;;22.14;61.10;99257.38;5087446;28;20048;-82
2021/06/12 06:29:19;;;;;;;12.70;7.00;;;;;;;22.30;60.85;99250.09;5095323;28;20664;-81
2021/06/12 06:31:45;;;;;;;7.75;6.85;;;;;;;22.53;61.37;99259.22;5095520;28;20048;-81
2021/06/12 06:34:11;;;;;;;9.75;7.18;;;;;;;22.78;61.10;99245.59;5094289;28;20040;-81
2021/06/12 06:36:40;;;;;;;10.52;6.93;;;;;;;22.83;61.30;99244.81;5094910;28;20062;-81
2021/06/12 06:39:06;;;;;;;8.13;6.70;;;;;;;23.01;60.29;99248.28;5094824;28;20395;-82
2021/06/12 06:41:33;;;;;;;12.55;6.93;;;;;;;23.50;58.79;99256.41;5093116;28;20048;-81
2021/06/12 06:43:59;;;;;;;9.77;6.90;;;;;;;23.66;58.31;99258.19;5084542;28;20635;-81
2021/06/12 06:46:25;;;;;;;8.90;6.95;;;;;;;24.00;58.14;99259.78;5092345;28;20472;-81
2021/06/12 06:48:52;;;;;;;10.27;6.15;;;;;;;23.80;57.42;99257.69;5093173;28;20051;-82
2021/06/12 06:51:18;;;;;;;12.13;7.00;;;;;;;24.07;58.18;99262.31;5093345;28;20081;-81
2021/06/12 06:53:46;;;;;;;8.30;6.57;;;;;;;23.41;57.13;99261.66;5092823;28;20048;-82
2021/06/12 06:56:12;;;;;;;8.07;7.00;;;;;;;22.71;59.80;99244.97;5088194;28;20040;-82
2021/06/12 06:58:39;;;;;;;8.32;6.80;;;;;;;23.03;59.43;99255.22;5088489;28;20488;-83
2021/06/12 07:01:05;;;;;;;7.05;6.30;;;;;;;23.19;58.92;99266.50;5083711;28;20051;-80
2021/06/12 07:03:31;;;;;;;8.82;5.90;;;;;;;23.32;57.89;99250.22;5092324;28;20075;-82
2021/06/12 07:05:58;;;;;;;7.03;6.32;;;;;;;23.83;59.08;99260.78;5093653;28;20092;-81
2021/06/12 07:08:24;;;;;;;6.93;6.22;;;;;;;24.05;56.05;99265.34;5089742;28;20067;-81
2021/06/12 07:10:52;;;;;;;9.57;6.13;;;;;;;24.01;57.48;99248.41;5090719;28;20515;-81
2021/06/12 07:13:19;;;;;;;9.98;6.25;;;;;;;24.53;55.39;99246.59;5091262;28;20222;-81
2021/06/12 07:15:46;;;;;;;8.80;5.78;;;;;;;24.21;55.35;99264.31;5072133;28;20503;-81
2021/06/12 07:18:12;;;;;;;7.65;6.20;;;;;;;23.74;55.74;99256.00;5072589;28;20040;-81
2021/06/12 07:20:38;;;;;;;6.80;6.10;;;;;;;24.32;56.24;99267.13;5077012;28;20049;-81
2021/06/12 07:23:05;;;;;;;7.82;6.35;;;;;;;24.18;54.20;99258.47;5072517;28;20561;-82
2021/06/12 07:25:34;;;;;;;9.57;6.25;;;;;;;24.37;54.25;99269.91;5078010;28;20411;-80
2021/06/12 07:28:02;;;;;;;9.65;6.00;;;;;;;24.00;53.58;99268.13;5092148;28;20044;-82
2021/06/12 07:30:28;;;;;;;6.93;5.25;;;;;;;24.32;53.65;99259.59;5078778;28;20528;-82
2021/06/12 07:32:55;;;;;;;7.75;5.30;;;;;;;24.47;53.03;99278.25;5093076;28;20052;-83
2021/06/12 07:35:21;;;;;;;7.68;6.15;;;;;;;24.80;52.20;99278.09;5079646;28;20048;-82
2021/06/12 07:37:49;;;;;;;9.50;5.35;;;;;;;24.33;53.78;99280.72;5072970;28;20142;-81
2021/06/12 07:40:17;;;;;;;10.07;5.50;;;;;;;24.17;54.14;99279.84;5080402;28;20440;-81
2021/06/12 07:42:43;;;;;;;7.18;6.03;;;;;;;24.26;53.76;99287.66;5084162;28;20048;-81
2021/06/12 07:45:14;;;;;;;11.40;6.28;;;;;;;24.30;55.27;99286.84;5078530;28;20047;-81
2021/06/12 07:47:41;;;;;;;7.72;5.45;;;;;;;24.70;53.69;99278.91;5090635;28;20097;-82
2021/06/12 07:50:08;;;;;;;7.82;5.80;;;;;;;24.55;53.87;99280.53;5091560;28;20094;-81
2021/06/12 07:52:34;;;;;;;8.00;5.75;;;;;;;24.94;54.16;99279.19;5084098;28;20048;-81
2021/06/12 07:55:00;;;;;;;9.70;6.15;;;;;;;24.72;52.83;99266.41;5092043;28;20098;-82
2021/06/12 07:57:26;;;;;;;7.20;5.82;;;;;;;24.30;54.22;99280.44;5084272;28;20049;-82
2021/06/12 07:59:52;;;;;;;6.65;5.78;;;;;;;24.56;53.74;99264.69;5077275;28;20044;-82
2021/06/12 08:02:20;;;;;;;9.70;6.55;;;;;;;24.96;52.53;99271.44;5090978;28;20056;-82
2021/06/12 08:04:46;;;;;;;7.03;6.20;;;;;;;25.45;52.28;99261.69;5085444;28;20059;-81
2021/06/12 08:07:15;;;;;;;6.68;5.78;;;;;;;25.88;50.60;99266.84;5077876;28;20052;-80
2021/06/12 08:09:42;;;;;;;11.00;6.00;;;;;;;25.71;52.00;99264.41;5091284;28;20040;-81
2021/06/12 08:12:09;;;;;;;5.72;4.35;;;;;;;25.98;50.29;99258.47;5079632;28;20055;-80
2021/06/12 08:14:39;;;;;;;7.68;4.68;;;;;;;25.49;50.29;99256.38;5074673;28;20043;-80
2021/06/12 08:17:11;;;;;;;7.07;4.70;;;;;;;25.82;51.14;99271.63;5074217;28;20050;-81
2021/06/12 08:19:46;;;;;;;8.27;4.93;;;;;;;25.52;51.80;99272.50;5091642;28;20047;-82
2021/06/12 08:22:13;;;;;;;6.28;5.25;;;;;;;25.41;52.15;99264.19;5077062;28;20075;-81
2021/06/12 08:24:42;;;;;;;6.70;4.38;;;;;;;25.69;51.47;99275.00;5077322;28;20123;-82
2021/06/12 08:27:11;;;;;;;7.03;4.40;;;;;;;25.83;51.23;99278.00;5089740;28;20044;-81
2021/06/12 08:29:38;;;;;;;8.50;4.73;;;;;;;26.08;52.26;99275.16;5090848;28;20108;-82
2021/06/12 08:32:06;;;;;;;7.78;4.43;;;;;;;26.36;51.89;99283.97;5085615;28;20540;-82
2021/06/12 08:34:32;;;;;;;6.53;4.78;;;;;;;26.44;51.09;99272.22;5090197;28;20052;-82
2021/06/12 08:37:02;;;;;;;7.35;3.97;;;;;;;26.31;50.39;99282.00;5084717;28;20048;-82
2021/06/12 08:39:28;;;;;;;6.25;4.20;;;;;;;26.25;50.50;99283.16;5071319;28;20147;-81
2021/06/12 08:41:58;;;;;;;7.65;4.20;;;;;;;26.06;51.01;99280.19;5084694;28;20101;-83
2021/06/12 08:44:26;;;;;;;7.30;4.28;;;;;;;26.10;50.74;99272.91;5088627;28;20121;-83
2021/06/12 08:46:52;;;;;;;5.82;4.00;;;;;;;25.98;51.44;99286.31;5082286;28;20080;-81
2021/06/12 08:49:19;;;;;;;10.85;4.03;;;;;;;26.35;50.47;99278.69;5083736;28;20067;-81
2021/06/12 08:51:48;;;;;;;8.93;3.65;;;;;;;25.76;51.37;99279.16;5085370;28;20047;-81
2021/06/12 08:54:18;;;;;;;5.25;3.55;;;;;;;26.11;51.36;99277.38;5084694;28;20051;-80
2021/06/12 08:56:46;;;;;;;5.63;4.10;;;;;;;26.05;50.66;99277.69;5070134;28;20356;-81
2021/06/12 08:59:12;;;;;;;5.65;4.30;;;;;;;26.12;50.51;99278.19;5075621;28;20050;-79
2021/06/12 09:01:38;;;;;;;4.90;3.88;;;;;;;26.03;50.60;99277.13;5073141;28;20052;-80
2021/06/12 09:04:05;;;;;;;6.60;3.88;;;;;;;26.06;51.10;99284.91;5090199;28;20040;-80
2021/06/12 09:06:31;;;;;;;7.72;4.57;;;;;;;26.14;49.00;99282.38;5073427;28;20125;-80
2021/06/12 09:08:58;;;;;;;5.20;4.03;;;;;;;25.99;50.28;99282.44;5071154;28;20090;-81
2021/06/12 09:11:27;;;;;;;14.48;3.85;;;;;;;26.31;50.13;99278.41;5071017;28;20056;-81
2021/06/12 09:13:54;;;;;;;6.45;4.35;;;;;;;26.50;49.03;99281.38;5070539;28;20051;-81
2021/06/12 09:16:32;;;;;;;7.22;4.10;;;;;;;26.60;48.86;99278.53;5089671;28;20050;-81
2021/06/12 09:19:05;;;;;;;5.57;3.55;;;;;;;26.88;48.18;99276.13;5077653;28;20055;-81
2021/06/12 09:21:34;;;;;;;9.77;3.40;;;;;;;26.94;48.90;99290.88;5089476;28;20416;-81
2021/06/12 09:24:01;;;;;;;8.65;3.63;;;;;;;26.77;48.65;99282.91;5083559;28;20048;-82
2021/06/12 09:26:44;;;;;;;5.20;4.18;;;;;;;26.90;48.85;99285.03;5071058;28;20053;-81
2021/06/12 09:29:12;;;;;;;6.18;4.07;;;;;;;26.39;48.51;99277.81;5079458;28;20475;-80
2021/06/12 09:31:45;;;;;;;6.60;4.20;;;;;;;26.58;47.96;99272.41;5070994;28;20055;-81
2021/06/12 09:34:15;;;;;;;6.90;3.90;;;;;;;26.36;49.15;99277.53;5088309;28;20048;-81
2021/06/12 09:36:42;;;;;;;6.30;3.83;;;;;;;26.57;48.47;99265.19;5071069;28;20048;-80
2021/06/12 09:39:14;;;;;;;9.73;4.22;;;;;;;26.99;47.58;99269.38;5089374;28;20052;-81
2021/06/12 09:41:47;;;;;;;8.35;4.32;;;;;;;27.07;47.33;99256.75;5070912;28;20045;-82
2021/06/12 09:44:29;;;;;;;9.18;4.45;;;;;;;27.07;46.91;99262.31;5070021;28;20045;-80
2021/06/12 09:46:56;;;;;;;6.65;3.65;;;;;;;26.82;47.45;99266.13;5076433;28;20393;-81
2021/06/12 09:49:30;;;;;;;8.48;3.95;;;;;;;26.87;48.78;99268.06;5070122;28;20052;-81
2021/06/12 09:52:09;;;;;;;5.70;4.20;;;;;;;26.59;47.65;99254.56;5073375;28;20098;-82
2021/06/12 09:54:41;;;;;;;5.50;3.70;;;;;;;26.82;47.27;99253.03;5085380;28;20393;-82
2021/06/12 09:57:11;;;;;;;8.55;3.60;;;;;;;26.92;47.42;99256.84;5070617;28;20147;-81
2021/06/12 09:59:43;;;;;;;8.63;3.78;;;;;;;26.71;45.82;99247.81;5074459;28;20102;-83
2021/06/12 10:02:10;;;;;;;6.53;3.25;;;;;;;27.06;47.46;99237.50;5093173;28;20557;-82
2021/06/12 10:04:36;;;;;;;9.20;3.50;;;;;;;27.24;48.18;99238.75;5077898;28;20094;-81
2021/06/12 10:07:03;;;;;;;5.72;3.15;;;;;;;27.77;46.35;99243.50;5074958;28;20044;-81
2021/06/12 10:09:29;;;;;;;7.28;4.22;;;;;;;27.64;46.03;99239.44;5074406;28;20409;-81
2021/06/12 10:11:56;;;;;;;5.40;2.53;;;;;;;26.81;46.97;99253.31;5088822;28;20098;-82
2021/06/12 10:14:24;;;;;;;3.78;2.80;;;;;;;27.25;46.13;99257.97;5086902;28;20479;-82
2021/06/12 10:16:54;;;;;;;4.78;3.17;;;;;;;27.59;47.87;99267.44;5074354;28;20091;-81
2021/06/12 10:19:21;;;;;;;3.92;2.70;;;;;;;26.76;47.68;99272.88;5089391;28;20044;-81
2021/06/12 10:21:47;;;;;;;4.55;2.70;;;;;;;27.34;48.26;99266.56;5093570;28;20055;-81
2021/06/12 10:24:14;;;;;;;7.05;2.50;;;;;;;27.33;47.82;99268.53;5092506;28;20055;-81
2021/06/12 10:26:40;;;;;;;5.90;2.88;;;;;;;27.54;47.88;99260.78;5093818;28;20134;-82
2021/06/12 10:29:08;;;;;;;4.05;3.10;;;;;;;27.31;47.12;99262.38;5081208;28;20048;-82
2021/06/12 10:31:43;;;;;;;7.88;2.53;;;;;;;26.77;47.18;99264.22;5073598;28;20385;-82
2021/06/12 10:34:10;;;;;;;9.45;2.85;;;;;;;27.08;46.82;99257.56;5075554;28;20090;-82
2021/06/12 10:36:40;;;;;;;7.70;2.60;;;;;;;27.25;47.26;99255.19;5093696;28;20511;-82
2021/06/12 10:39:25;;;;;;;4.78;2.22;;;;;;;27.66;47.65;99256.75;5081245;28;20055;-81
2021/06/12 10:42:09;;;;;;;4.70;2.47;;;;;;;27.76;45.48;99233.47;5072746;28;20435;-82
2021/06/12 10:44:35;;;;;;;5.32;2.72;;;;;;;27.97;44.08;99254.47;5087555;28;20056;-81
2021/06/12 10:47:03;;;;;;;3.53;2.28;;;;;;;28.15;45.09;99247.25;5093085;28;20055;-82
2021/06/12 10:49:33;;;;;;;7.88;2.47;;;;;;;28.28;45.59;99245.69;5080208;28;20049;-80
2021/06/12 10:52:00;;;;;;;6.30;2.70;;;;;;;28.34;43.64;99232.47;5086595;28;20048;-82
2021/06/12 10:54:32;;;;;;;4.82;2.40;;;;;;;28.35;43.84;99236.91;5092421;28;20051;-83
2021/06/12 10:57:15;;;;;;;3.78;2.50;;;;;;;28.51;45.62;99226.34;5092551;28;20058;-82
2021/06/12 10:59:51;;;;;;;6.25;2.45;;;;;;;28.49;44.99;99223.84;5082944;28;20054;-82
2021/06/12 11:02:27;;;;;;;2.85;2.10;;;;;;;28.48;44.11;99224.16;5086336;28;20047;-81
2021/06/12 11:04:57;;;;;;;4.85;2.17;;;;;;;28.95;43.94;99222.31;5084493;28;20055;-82
2021/06/12 11:07:29;;;;;;;5.95;2.42;;;;;;;29.10;43.80;99204.41;5090635;28;20109;-81
2021/06/12 11:10:23;;;;;;;6.05;2.10;;;;;;;28.86;43.40;99208.22;5084205;28;20040;-82
2021/06/12 11:12:51;;;;;;;3.53;1.88;;;;;;;28.26;41.96;99220.00;5089187;28;20054;-80
2021/06/12 11:15:35;;;;;;;3.17;1.90;;;;;;;27.83;43.84;99225.56;5083453;28;20059;-81
2021/06/12 11:18:21;;;;;;;3.63;3.10;;;;;;;27.64;46.60;99223.56;5077093;28;20048;-82
2021/06/12 11:20:49;;;;;;;10.27;2.53;;;;;;;27.40;46.94;99228.28;5086749;28;20040;-81
2021/06/12 11:23:17;;;;;;;4.90;2.35;;;;;;;27.39;48.40;99219.06;5092613;28;20078;-82
2021/06/12 11:25:58;;;;;;;3.10;2.35;;;;;;;27.35;47.16;99227.19;5082104;28;20262;-82
2021/06/12 11:28:30;;;;;;;6.32;2.85;;;;;;;27.22;48.24;99230.66;5081826;28;20044;-81
2021/06/12 11:31:31;;;;;;;6.70;2.55;;;;;;;27.49;47.04;99218.13;5091620;28;20076;-80
2021/06/12 11:34:19;;;;;;;3.75;1.80;;;;;;;27.60;45.27;99224.44;5082586;28;20044;-82
2021/06/12 11:36:50;;;;;;;4.93;1.88;;;;;;;27.62;45.00;99213.81;5072529;28;20047;-82
2021/06/12 11:39:17;;;;;;;3.58;2.10;;;;;;;27.72;45.51;99222.06;5078984;28;20500;-81